createdAt,value
2022-08-04T00:01:24.814Z,28.00
2022-08-04T00:04:03.828Z,28.60
2022-08-04T00:06:50.443Z,29.20
2022-08-04T00:09:36.628Z,29.80
2022-08-04T00:12:12.496Z,30.80
2022-08-04T00:14:51.605Z,31.20
2022-08-04T00:17:28.740Z,31.30
2022-08-04T00:20:02.483Z,30.60
2022-08-04T00:22:35.146Z,31.30
2022-08-04T00:25:07.980Z,31.90
2022-08-04T00:27:38.011Z,31.90
2022-08-04T00:30:09.445Z,32.30
2022-08-04T00:32:41.675Z,32.30
2022-08-04T00:35:14.410Z,32.90
2022-08-04T00:37:46.280Z,33.50
2022-08-04T00:40:33.966Z,34.10
2022-08-04T00:43:18.108Z,34.80
2022-08-04T00:46:20.606Z,36.20
2022-08-04T00:49:34.589Z,36.70
2022-08-04T00:52:32.672Z,38.40
2022-08-04T00:55:23.311Z,38.60
2022-08-04T00:58:23.378Z,39.30
2022-08-04T01:01:10.144Z,41.00
2022-08-04T01:03:59.079Z,41.90
2022-08-04T01:06:43.464Z,43.10
2022-08-04T01:09:49.881Z,44.00
2022-08-04T01:12:44.937Z,44.60
2022-08-04T01:15:30.260Z,46.00
2022-08-04T01:18:09.552Z,46.80
2022-08-04T01:21:04.053Z,46.40
2022-08-04T01:24:13.711Z,45.70
2022-08-04T01:26:57.308Z,46.30
2022-08-04T01:29:46.468Z,47.80
2022-08-04T01:32:25.810Z,48.10
2022-08-04T01:35:07.629Z,50.30
2022-08-04T01:37:56.090Z,52.00
2022-08-04T01:40:29.155Z,54.90
2022-08-04T01:43:03.296Z,56.70
2022-08-04T01:45:34.978Z,56.10
2022-08-04T01:48:08.347Z,56.40
2022-08-04T01:50:38.317Z,57.10
2022-08-04T01:53:07.733Z,56.90
2022-08-04T01:55:54.897Z,54.50
2022-08-04T01:58:26.498Z,54.70
2022-08-04T02:01:08.128Z,55.70
2022-08-04T02:04:20.035Z,57.70
2022-08-04T02:06:42.253Z,58.50
2022-08-04T02:09:23.894Z,58.20
2022-08-04T02:12:06.161Z,58.20
2022-08-04T02:14:57.297Z,59.70
2022-08-04T02:17:33.854Z,61.10
2022-08-04T02:20:10.818Z,64.60
2022-08-04T02:23:03.793Z,68.50
2022-08-04T02:25:41.114Z,72.20
2022-08-04T02:28:23.747Z,74.80
2022-08-04T02:31:05.929Z,77.50
2022-08-04T02:33:40.850Z,82.00
2022-08-04T02:36:17.995Z,80.70
2022-08-04T02:39:00.828Z,78.70
2022-08-04T02:41:32.014Z,77.80
2022-08-04T02:44:04.470Z,80.10
2022-08-04T02:46:35.811Z,84.80
2022-08-04T02:49:10.551Z,85.30
2022-08-04T02:51:44.809Z,85.70
2022-08-04T02:54:31.814Z,85.20
2022-08-04T02:57:04.544Z,81.20
2022-08-04T02:59:58.268Z,82.10
2022-08-04T03:02:48.575Z,80.60
2022-08-04T03:05:23.587Z,82.90
2022-08-04T03:09:13.107Z,82.10
2022-08-04T03:12:26.546Z,77.00
2022-08-04T03:15:48.758Z,77.00
2022-08-04T03:19:04.634Z,78.60
2022-08-04T03:22:17.905Z,82.00
2022-08-04T03:25:29.929Z,81.60
2022-08-04T03:28:42.165Z,84.30
2022-08-04T03:32:16.016Z,87.60
2022-08-04T03:35:13.516Z,89.90
2022-08-04T03:38:23.635Z,90.60
2022-08-04T03:41:57.453Z,91.00
2022-08-04T03:45:23.697Z,91.20
2022-08-04T03:48:25.040Z,91.30
2022-08-04T03:51:46.237Z,91.10
2022-08-04T03:55:22.045Z,90.70
2022-08-04T03:58:44.155Z,87.40
2022-08-04T04:02:02.271Z,78.80
2022-08-04T04:04:58.637Z,72.00
2022-08-04T04:08:27.602Z,73.90
2022-08-04T04:11:33.475Z,62.20
2022-08-04T04:14:23.969Z,49.10
2022-08-04T04:17:38.766Z,40.60
2022-08-04T04:20:51.812Z,31.50
2022-08-04T04:23:56.721Z,25.30
2022-08-04T04:26:49.247Z,23.50
2022-08-04T04:30:02.173Z,21.80
2022-08-04T04:32:54.280Z,18.90
2022-08-04T04:35:42.771Z,16.00
2022-08-04T04:38:53.931Z,13.40
2022-08-04T04:42:03.024Z,13.60
2022-08-04T04:45:11.234Z,10.40
2022-08-04T04:48:08.092Z,9.10
2022-08-04T04:50:57.412Z,6.00
2022-08-04T04:53:40.103Z,4.50
2022-08-04T04:56:24.501Z,2.80
2022-08-04T04:58:57.125Z,1.90
2022-08-04T05:02:17.258Z,1.40
2022-08-04T05:05:35.173Z,1.00
2022-08-04T05:09:06.667Z,1.00
2022-08-04T05:12:53.792Z,1.00
2022-08-04T05:15:10.224Z,1.00
2022-08-04T05:17:45.598Z,1.00
2022-08-04T05:20:21.734Z,1.00
2022-08-04T05:22:58.257Z,1.00
2022-08-04T05:25:36.894Z,1.00
2022-08-04T05:28:11.449Z,1.00
2022-08-04T05:30:48.853Z,1.00
2022-08-04T05:33:29.502Z,1.00
2022-08-04T05:36:18.981Z,1.00
2022-08-04T05:39:00.004Z,1.00
2022-08-04T05:41:32.370Z,2.50
2022-08-04T05:44:18.670Z,4.20
2022-08-04T05:46:54.562Z,5.10
2022-08-04T05:49:28.402Z,6.00
2022-08-04T05:52:02.469Z,5.50
2022-08-04T05:54:35.249Z,5.90
2022-08-04T05:57:07.205Z,5.70
2022-08-04T05:59:43.000Z,5.10
2022-08-04T06:02:13.192Z,5.50
2022-08-04T06:04:48.220Z,5.70
2022-08-04T06:07:18.295Z,5.50
2022-08-04T06:09:47.697Z,5.40
2022-08-04T06:12:23.339Z,5.10
2022-08-04T06:14:59.389Z,4.80
2022-08-04T06:19:10.077Z,4.50
2022-08-04T06:20:32.634Z,4.30
2022-08-04T06:23:09.294Z,3.70
2022-08-04T06:25:47.957Z,3.70
2022-08-04T06:28:19.112Z,3.50
2022-08-04T06:30:51.015Z,2.90
2022-08-04T06:33:33.673Z,3.30
2022-08-04T06:36:25.001Z,3.00
2022-08-04T06:38:58.767Z,2.60
2022-08-04T06:41:30.370Z,2.70
2022-08-04T06:44:04.415Z,1.80
2022-08-04T06:46:35.725Z,1.50
2022-08-04T06:49:05.936Z,1.30
2022-08-04T06:51:49.011Z,1.00
2022-08-04T06:54:18.819Z,1.00
2022-08-04T06:56:50.625Z,1.00
2022-08-04T06:59:22.602Z,1.00
2022-08-04T07:01:54.550Z,1.00
2022-08-04T07:04:24.036Z,1.00
2022-08-04T07:06:55.143Z,1.00
2022-08-04T07:09:24.401Z,1.00
2022-08-04T07:11:54.541Z,1.00
2022-08-04T07:14:25.969Z,1.00
2022-08-04T07:16:57.516Z,1.00
2022-08-04T07:19:26.784Z,1.00
2022-08-04T07:22:17.984Z,1.00
2022-08-04T07:24:47.356Z,1.00
2022-08-04T07:27:47.941Z,1.00
2022-08-04T07:30:11.022Z,1.00
2022-08-04T07:32:44.105Z,1.00
2022-08-04T07:36:10.614Z,1.00
2022-08-04T07:38:09.642Z,1.00
2022-08-04T07:40:39.569Z,1.00
2022-08-04T07:43:09.991Z,1.00
2022-08-04T07:45:39.951Z,1.00
2022-08-04T07:48:11.264Z,1.00
2022-08-04T07:50:44.015Z,1.00
2022-08-04T07:53:54.442Z,1.00
2022-08-04T07:56:05.459Z,1.00
2022-08-04T07:58:35.099Z,1.00
2022-08-04T08:01:04.576Z,1.00
2022-08-04T08:03:34.451Z,1.00
2022-08-04T08:06:17.309Z,1.00
2022-08-04T08:08:54.128Z,1.00
2022-08-04T08:11:24.238Z,1.00
2022-08-04T08:14:14.879Z,1.00
2022-08-04T08:16:44.660Z,1.00
2022-08-04T08:19:14.565Z,1.00
2022-08-04T08:21:59.353Z,1.00
2022-08-04T08:24:32.531Z,1.00
2022-08-04T08:27:04.607Z,1.00
2022-08-04T08:29:36.197Z,1.00
2022-08-04T08:32:09.980Z,1.00
2022-08-04T08:34:40.697Z,1.00
2022-08-04T08:37:18.768Z,1.00
2022-08-04T08:39:58.492Z,1.00
2022-08-04T08:44:04.339Z,1.00
2022-08-04T08:47:01.538Z,1.00
2022-08-04T08:50:04.802Z,1.00
2022-08-04T08:53:02.661Z,1.00
2022-08-04T08:55:51.385Z,1.00
2022-08-04T08:58:43.608Z,1.00
2022-08-04T09:01:34.258Z,1.00
2022-08-04T09:04:40.584Z,1.00
2022-08-04T09:07:36.025Z,1.00
2022-08-04T09:10:15.373Z,1.00
2022-08-04T09:12:57.658Z,1.00
2022-08-04T09:15:38.991Z,1.00
2022-08-04T09:18:19.932Z,1.00
2022-08-04T09:20:55.587Z,1.00
2022-08-04T09:23:42.898Z,1.00
2022-08-04T09:26:26.580Z,1.00
2022-08-04T09:29:09.907Z,1.00
2022-08-04T09:32:07.364Z,1.00
2022-08-04T09:35:08.559Z,1.00
2022-08-04T09:37:48.393Z,1.00
2022-08-04T09:40:31.399Z,1.00
2022-08-04T09:44:43.103Z,1.00
2022-08-04T09:46:40.779Z,1.00
2022-08-04T09:49:19.547Z,1.00
2022-08-04T09:52:11.475Z,1.00
2022-08-04T09:54:54.658Z,1.00
2022-08-04T09:57:43.125Z,1.00
2022-08-04T10:00:17.023Z,1.00
2022-08-04T10:02:56.599Z,1.00
2022-08-04T10:05:43.742Z,1.00
2022-08-04T10:08:36.609Z,1.00
2022-08-04T10:11:16.358Z,1.00
2022-08-04T10:13:59.173Z,1.00
2022-08-04T10:16:48.921Z,1.00
2022-08-04T10:19:30.188Z,1.00
2022-08-04T10:22:30.935Z,1.00
2022-08-04T10:26:03.488Z,1.00
2022-08-04T10:28:22.710Z,1.00
2022-08-04T10:30:58.877Z,1.00
2022-08-04T10:33:38.372Z,1.00
2022-08-04T10:36:14.433Z,1.00
2022-08-04T10:38:58.468Z,1.00
2022-08-04T10:41:37.562Z,1.00
2022-08-04T10:44:24.693Z,1.00
2022-08-04T10:47:02.406Z,1.00
2022-08-04T10:49:40.908Z,1.00
2022-08-04T10:52:24.386Z,1.00
2022-08-04T10:55:04.841Z,1.00
2022-08-04T10:57:41.773Z,1.00
2022-08-04T11:00:19.885Z,1.00
2022-08-04T11:02:58.233Z,1.00
2022-08-04T11:05:43.976Z,1.00
2022-08-04T11:08:21.758Z,1.00
2022-08-04T11:11:02.813Z,1.00
2022-08-04T11:13:46.518Z,1.00
2022-08-04T11:16:26.544Z,1.00
2022-08-04T11:19:11.984Z,1.00
2022-08-04T11:21:51.337Z,1.00
2022-08-04T11:24:36.217Z,1.00
2022-08-04T11:27:13.554Z,1.00
2022-08-04T11:29:52.617Z,1.00
2022-08-04T11:32:28.185Z,1.00
2022-08-04T11:35:05.782Z,1.00
2022-08-04T11:37:50.366Z,1.00
2022-08-04T11:40:34.696Z,1.00
2022-08-04T11:43:14.077Z,1.00
2022-08-04T11:45:52.532Z,1.00
2022-08-04T11:48:31.423Z,1.00
2022-08-04T11:51:06.779Z,1.00
2022-08-04T11:53:40.271Z,1.00
2022-08-04T11:56:35.880Z,1.00
2022-08-04T11:59:09.230Z,1.00
2022-08-04T12:02:03.884Z,1.00
2022-08-04T12:04:48.718Z,1.00
2022-08-04T12:07:37.534Z,1.00
2022-08-04T12:10:38.045Z,1.00
2022-08-04T12:13:29.481Z,1.00
2022-08-04T12:16:16.207Z,1.00
2022-08-04T12:18:53.860Z,1.00
2022-08-04T12:21:33.311Z,1.00
2022-08-04T12:24:10.552Z,1.00
2022-08-04T12:26:51.663Z,1.00
2022-08-04T12:29:28.943Z,1.00
2022-08-04T12:32:08.414Z,1.00
2022-08-04T12:34:47.724Z,1.00
2022-08-04T12:37:30.639Z,1.00
2022-08-04T12:40:21.616Z,1.00
2022-08-04T12:43:07.197Z,1.00
2022-08-04T12:45:43.527Z,1.00
2022-08-04T12:48:21.558Z,1.00
2022-08-04T12:50:54.076Z,1.00
2022-08-04T12:53:31.809Z,1.00
2022-08-04T12:56:04.420Z,1.00
2022-08-04T12:58:43.507Z,1.00
2022-08-04T13:02:07.884Z,1.00
2022-08-04T13:04:18.214Z,1.00
2022-08-04T13:06:58.486Z,1.00
2022-08-04T13:09:35.180Z,1.00
2022-08-04T13:12:13.532Z,1.00
2022-08-04T13:14:45.622Z,1.00
2022-08-04T13:17:16.529Z,1.00
2022-08-04T13:19:53.242Z,1.00
2022-08-04T13:22:28.892Z,1.00
2022-08-04T13:26:40.266Z,1.00
2022-08-04T13:27:55.391Z,1.00
2022-08-04T13:30:29.966Z,1.00
2022-08-04T13:33:06.648Z,1.00
2022-08-04T13:35:55.857Z,1.00
2022-08-04T13:38:28.408Z,1.00
2022-08-04T13:41:01.658Z,1.00
2022-08-04T13:44:17.033Z,1.00
2022-08-04T13:46:32.903Z,1.00
2022-08-04T13:49:54.159Z,1.00
2022-08-04T13:52:11.054Z,1.00
2022-08-04T13:54:45.374Z,1.00
2022-08-04T13:57:19.204Z,1.00
2022-08-04T13:59:59.014Z,1.00
2022-08-04T14:02:39.296Z,1.00
2022-08-04T14:05:22.362Z,1.00
2022-08-04T14:08:02.463Z,1.00
2022-08-04T14:10:31.936Z,1.00
2022-08-04T14:13:01.864Z,1.00
2022-08-04T14:16:03.041Z,1.00
2022-08-04T14:18:32.152Z,1.00
2022-08-04T14:21:09.751Z,1.00
2022-08-04T14:23:52.404Z,1.00
2022-08-04T14:26:32.780Z,1.00
2022-08-04T14:29:26.864Z,1.00
2022-08-04T14:32:12.758Z,1.00
2022-08-04T14:34:46.217Z,1.00
2022-08-04T14:37:22.656Z,1.00
2022-08-04T14:40:18.089Z,1.00
2022-08-04T14:42:54.771Z,1.00
2022-08-04T14:45:38.032Z,1.00
2022-08-04T14:48:11.068Z,1.00
2022-08-04T14:50:43.643Z,1.00
2022-08-04T14:53:17.395Z,1.00
2022-08-04T14:55:50.362Z,1.00
2022-08-04T14:58:34.215Z,1.00
2022-08-04T15:01:11.722Z,1.00
2022-08-04T15:03:49.600Z,1.00
2022-08-04T15:06:23.472Z,1.00
2022-08-04T15:08:56.977Z,1.00
2022-08-04T15:11:27.210Z,1.00
2022-08-04T15:13:59.208Z,1.00
2022-08-04T15:16:30.936Z,1.00
2022-08-04T15:19:01.224Z,1.00
2022-08-04T15:21:31.422Z,1.00
2022-08-04T15:24:01.908Z,1.00
2022-08-04T15:26:38.293Z,1.00
2022-08-04T15:29:17.397Z,1.00
2022-08-04T15:32:06.536Z,1.00
2022-08-04T15:34:49.731Z,1.00
2022-08-04T15:37:30.300Z,1.00
2022-08-04T15:40:11.019Z,1.00
2022-08-04T15:42:49.490Z,1.00
2022-08-04T15:46:02.529Z,1.00
2022-08-04T15:48:36.431Z,1.00
2022-08-04T15:51:16.880Z,1.00
2022-08-04T15:54:27.339Z,1.00
2022-08-04T15:57:02.001Z,1.00
2022-08-04T16:00:08.755Z,1.00
2022-08-04T16:02:44.453Z,1.00
2022-08-04T16:05:40.533Z,1.00
2022-08-04T16:08:18.427Z,1.00
2022-08-04T16:10:51.002Z,1.00
2022-08-04T16:13:24.581Z,1.00
2022-08-04T16:15:56.425Z,1.00
2022-08-04T16:18:44.015Z,1.00
2022-08-04T16:21:23.587Z,1.00
2022-08-04T16:24:19.757Z,1.00
2022-08-04T16:26:54.611Z,1.00
2022-08-04T16:29:39.439Z,1.00
2022-08-04T16:32:22.065Z,1.00
2022-08-04T16:34:59.059Z,1.00
2022-08-04T16:37:35.206Z,1.00
2022-08-04T16:40:35.399Z,1.00
2022-08-04T16:43:13.366Z,1.00
2022-08-04T16:46:03.853Z,1.00
2022-08-04T16:48:35.583Z,1.00
2022-08-04T16:51:07.742Z,1.00
2022-08-04T16:53:53.702Z,1.00
2022-08-04T16:56:35.855Z,1.00
2022-08-04T16:59:10.283Z,1.00
2022-08-04T17:01:48.750Z,1.00
2022-08-04T17:04:19.023Z,1.00
2022-08-04T17:06:48.359Z,1.00
2022-08-04T17:09:23.321Z,1.00
2022-08-04T17:11:55.889Z,1.00
2022-08-04T17:14:26.719Z,1.00
2022-08-04T17:17:02.615Z,1.00
2022-08-04T17:19:31.678Z,1.00
2022-08-04T17:22:07.493Z,1.00
2022-08-04T17:24:41.690Z,1.00
2022-08-04T17:28:09.650Z,1.00
2022-08-04T17:30:01.445Z,1.00
2022-08-04T17:32:32.002Z,1.00
2022-08-04T17:35:04.036Z,1.00
2022-08-04T17:37:52.122Z,1.00
2022-08-04T17:40:25.298Z,1.00
2022-08-04T17:44:01.564Z,1.00
2022-08-04T17:46:29.089Z,1.00
2022-08-04T17:49:07.625Z,1.00
2022-08-04T17:52:05.705Z,1.00
2022-08-04T17:54:37.469Z,1.00
2022-08-04T17:57:21.098Z,1.00
2022-08-04T18:02:55.556Z,1.00
2022-08-04T18:05:50.159Z,1.00
2022-08-04T18:08:45.466Z,1.00
2022-08-04T18:14:10.548Z,1.00
2022-08-04T18:16:46.129Z,1.00
2022-08-04T18:19:19.120Z,1.00
2022-08-04T18:21:59.585Z,1.00
2022-08-04T18:24:35.113Z,1.00
2022-08-04T18:27:23.887Z,1.00
2022-08-04T18:30:33.880Z,1.00
2022-08-04T18:36:32.890Z,1.00
2022-08-04T18:38:30.339Z,1.00
2022-08-04T18:40:59.378Z,1.00
2022-08-04T18:43:40.746Z,1.00
2022-08-04T18:46:15.331Z,1.00
2022-08-04T18:48:52.384Z,1.00
2022-08-04T18:51:23.708Z,1.00
2022-08-04T18:53:59.936Z,1.00
2022-08-04T18:56:32.630Z,1.00
2022-08-04T18:59:04.523Z,1.00
2022-08-04T19:02:16.675Z,1.00
2022-08-04T19:04:49.603Z,1.00
2022-08-04T19:07:24.496Z,1.00
2022-08-04T19:10:00.963Z,1.00
2022-08-04T19:12:31.979Z,1.00
2022-08-04T19:15:08.825Z,1.00
2022-08-04T19:17:55.038Z,1.00
2022-08-04T19:20:28.096Z,1.00
2022-08-04T19:24:27.808Z,1.00
2022-08-04T19:25:59.644Z,1.00
2022-08-04T19:28:36.860Z,1.00
2022-08-04T19:31:09.475Z,1.00
2022-08-04T19:33:59.641Z,1.00
2022-08-04T19:36:32.596Z,1.00
2022-08-04T19:39:11.235Z,1.00
2022-08-04T19:42:06.763Z,1.00
2022-08-04T19:44:31.947Z,1.00
2022-08-04T19:47:02.316Z,1.00
2022-08-04T19:50:04.174Z,1.00
2022-08-04T19:52:39.834Z,1.00
2022-08-04T19:55:22.219Z,1.00
2022-08-04T19:57:53.785Z,1.00
2022-08-04T20:00:33.327Z,1.00
2022-08-04T20:03:03.871Z,1.00
2022-08-04T20:05:54.455Z,1.00
2022-08-04T20:08:25.214Z,1.00
2022-08-04T20:10:55.065Z,1.00
2022-08-04T20:13:37.241Z,1.00
2022-08-04T20:16:29.433Z,1.00
2022-08-04T20:19:03.781Z,1.00
2022-08-04T20:21:53.999Z,1.00
2022-08-04T20:24:38.613Z,1.00
2022-08-04T20:27:15.076Z,1.00
2022-08-04T20:29:49.841Z,1.00
2022-08-04T20:32:22.556Z,1.00
2022-08-04T20:34:52.843Z,1.00
2022-08-04T20:37:23.978Z,1.00
2022-08-04T20:39:56.082Z,1.00
2022-08-04T20:42:34.134Z,1.00
2022-08-04T20:45:05.568Z,1.00
2022-08-04T20:47:36.140Z,1.00
2022-08-04T20:50:10.704Z,1.00
2022-08-04T20:52:40.917Z,1.00
2022-08-04T20:55:11.273Z,1.00
2022-08-04T20:57:48.360Z,1.00
2022-08-04T21:00:26.264Z,1.00
2022-08-04T21:03:00.023Z,1.00
2022-08-04T21:05:29.221Z,1.00
2022-08-04T21:08:01.868Z,1.00
2022-08-04T21:10:31.290Z,1.00
2022-08-04T21:13:00.459Z,1.00
2022-08-04T21:15:58.498Z,1.00
2022-08-04T21:18:29.097Z,1.00
2022-08-04T21:20:58.582Z,1.00
2022-08-04T21:23:27.792Z,1.00
2022-08-04T21:26:04.391Z,1.00
2022-08-04T21:28:33.958Z,1.00
2022-08-04T21:31:10.992Z,1.00
2022-08-04T21:36:40.211Z,1.00
2022-08-04T21:39:11.080Z,1.00
2022-08-04T21:42:19.794Z,1.00
2022-08-04T21:44:30.637Z,1.00
2022-08-04T21:47:02.587Z,1.00
2022-08-04T21:49:31.761Z,1.00
2022-08-04T21:52:07.293Z,1.00
2022-08-04T21:54:37.019Z,1.00
2022-08-04T21:57:06.911Z,1.00
2022-08-04T21:59:45.169Z,1.00
2022-08-04T22:02:16.759Z,1.00
2022-08-04T22:04:48.490Z,1.00
2022-08-04T22:07:17.985Z,1.00
2022-08-04T22:12:41.353Z,1.00
2022-08-04T22:16:02.664Z,1.00
2022-08-04T22:18:05.017Z,1.00
2022-08-04T22:20:34.091Z,1.00
2022-08-04T22:23:06.383Z,1.00
2022-08-04T22:25:55.630Z,1.00
2022-08-04T22:28:28.103Z,1.00
2022-08-04T22:30:58.861Z,1.00
2022-08-04T22:33:53.947Z,1.00
2022-08-04T22:36:18.945Z,1.00
2022-08-04T22:38:54.267Z,1.00
2022-08-04T22:41:34.351Z,1.00
2022-08-04T22:44:16.211Z,1.00
2022-08-04T22:46:45.397Z,1.00
2022-08-04T22:49:16.218Z,1.00
2022-08-04T22:51:50.791Z,1.00
2022-08-04T22:54:20.397Z,1.00
2022-08-04T22:56:49.507Z,1.00
2022-08-04T22:59:21.676Z,1.00
2022-08-04T23:01:59.673Z,1.00
2022-08-04T23:04:34.404Z,1.00
2022-08-04T23:07:09.576Z,1.00
2022-08-04T23:09:50.800Z,1.00
2022-08-04T23:12:26.522Z,1.00
2022-08-04T23:14:57.185Z,1.00
2022-08-04T23:17:28.436Z,1.00
2022-08-04T23:20:01.735Z,1.00
2022-08-04T23:22:42.336Z,1.00
2022-08-04T23:25:15.836Z,1.00
2022-08-04T23:27:50.642Z,1.00
2022-08-04T23:30:24.544Z,1.00
2022-08-04T23:32:59.486Z,1.00
2022-08-04T23:35:30.050Z,1.00
2022-08-04T23:38:30.313Z,1.00
2022-08-04T23:40:51.081Z,1.00
2022-08-04T23:43:23.161Z,1.00
2022-08-04T23:46:07.349Z,1.00
2022-08-04T23:48:38.843Z,1.00
2022-08-04T23:51:14.260Z,1.00
2022-08-04T23:54:02.351Z,1.00
2022-08-04T23:56:35.690Z,1.00
2022-08-04T23:59:23.115Z,1.00
